Agat, GU

9:09 AM ChST on August 28, 2014 (GMT +1000)
Ordot Dump | Change Station
CLOSE
Current Station
Personal Weather Station
Location: Chalan Pago Ordot,
Elevation: 282 ft
Nearby Weather Stations

Elev 282 ft 13.44 °N, 144.75 °E | Updated 0 second ago

Mostly Cloudy
Mostly Cloudy
85.5 °F
Feels Like 102 °F
N
0.0
Wind Variable Wind from SSE
Gusts 2.0 mph

Today
High -- | Low -- °F
--% Chance of Precip.
Yesterday
High -- | Low -- °F
Precip. -- in
6:09 AM 6:35 PM
Waxing Crescent, 5% visible
Pressure 29.88 in
Visibility 10.0 miles
Clouds Few 2000 ft
Scattered Clouds 3100 ft
Mostly Cloudy 5000 ft
Heat Index 102 °F
Dew Point 82 °F
Humidity 88%
Rainfall 0.25 in
Snow Depth Not available.
UV 4 out of 12
Pollen Not available.
Air Quality Not available.
Flu Activity Not available.
METAR PGUM 272254Z 07005KT 10SM FEW020 SCT031 BKN050 28/24 A2991 RMK AO2 SLP119 T02840244 $

More Conditions Fewer Conditions

Pressure 29.88 in
Visibility 10.0 miles
Clouds Few 2000 ft
Scattered Clouds 3100 ft
Mostly Cloudy 5000 ft
Heat Index 102 °F
Dew Point 82 °F
Humidity 88%
Rainfall 0.25 in
Snow Depth Not available.
UV 4 out of 12
Pollen Not available.
Air Quality Not available.
Flu Activity Not available.
METAR PGUM 272254Z 07005KT 10SM FEW020 SCT031 BKN050 28/24 A2991 RMK AO2 SLP119 T02840244 $

More Conditions Fewer Conditions

10-Day Weather Forecast

Almanac

Astronomy

Aug. 28, 2014 Rise Set
Actual Time 6:09 AM ChST 6:35 PM ChST
Civil Twilight 5:48 AM ChST 6:57 PM ChST
Nautical Twilight 5:22 AM ChST 7:22 PM ChST
Astronomical Twilight 4:57 AM ChST 7:47 PM ChST
Moon 7:56 AM ChST (8/28) 8:12 PM ChST (8/28)
Length of Visible Light 13h 08m
Length of Day
12h 25m
Tomorrow will be 0m 43s shorter.
Waxing Crescent, 5% of the Moon is Illuminated
Aug 27
Waxing Crescent
Sep 2
First Quarter
Sep 8
Full
Sep 15
Last Quarter
Sep 24
New

Community

WunderPhotos

Upload Photos

1,747,814 photos uploaded!

Nearby

Snow Depth

Station Depth Elevation
No new snow has been reported.

Earthquake Activity

City Distance Mag. Time & Date
No recent earthquake activity has been reported nearby.
Minimum magnitude displayed is 2.5.

Coastal Water Temperatures

Place Temperature
No Stations Reporting

Nearby Weather Stations